Arnold Line, Mississippi
Current Conditions -  °F | °C
As of 11:00 AM on Friday 19 Dec 2014 (Local Time) from KHBG Reporting Station
Overcast Overcast  
Wind Chill: 46°   Ceiling: 2200
Heat Index: 48°   Visibility: 10mi
Dew Point: 43°   Wind: 5mph
Humidity: 83%   Direction: NA
Pressure: 30.18"   Gusts: NA
Location:  31.1996°N, 89.2694°W
Report Text: KHBG 191700Z AUTO VRB04KT 10SM BKN022 OVC095 09/06 A3018 RMK AO2 T00890061
Loading
Personal Weather Stations






























Interactive Weather Map New forecast layout! Learn more

10-Day Weather Forecast

Advertisements
Track Severe Weather on mobile